createdAt,value
2017-09-29T00:00:07.905Z,10.74
2017-09-29T00:01:08.522Z,10.78
2017-09-29T00:02:09.131Z,10.81
2017-09-29T00:03:09.745Z,10.79
2017-09-29T00:04:10.356Z,10.92
2017-09-29T00:05:11.120Z,10.94
2017-09-29T00:06:11.732Z,10.89
2017-09-29T00:07:12.343Z,10.86
2017-09-29T00:08:12.954Z,10.86
2017-09-29T00:09:13.597Z,10.89
2017-09-29T00:10:14.357Z,10.87
2017-09-29T00:11:14.971Z,10.99
2017-09-29T00:12:15.582Z,10.97
2017-09-29T00:13:16.193Z,10.99
2017-09-29T00:14:16.806Z,10.93
2017-09-29T00:15:17.567Z,10.99
2017-09-29T00:16:18.179Z,11.04
2017-09-29T00:17:18.791Z,10.94
2017-09-29T00:18:19.409Z,10.99
2017-09-29T00:19:20.016Z,10.92
2017-09-29T00:20:20.806Z,10.96
2017-09-29T00:21:21.417Z,10.99
2017-09-29T00:22:22.030Z,10.94
2017-09-29T00:23:22.645Z,10.89
2017-09-29T00:24:23.257Z,10.87
2017-09-29T00:25:24.050Z,10.86
2017-09-29T00:26:24.662Z,10.90
2017-09-29T00:27:25.274Z,10.79
2017-09-29T00:28:25.885Z,10.84
2017-09-29T00:29:26.497Z,10.89
2017-09-29T00:30:27.288Z,10.76
2017-09-29T00:31:27.900Z,10.79
2017-09-29T00:32:28.512Z,10.79
2017-09-29T00:33:29.125Z,10.92
2017-09-29T00:34:29.741Z,10.93
2017-09-29T00:35:30.534Z,10.87
2017-09-29T00:36:31.152Z,10.89
2017-09-29T00:37:31.799Z,10.89
2017-09-29T00:38:32.413Z,10.76
2017-09-29T00:39:33.023Z,10.78
2017-09-29T00:40:33.785Z,10.81
2017-09-29T00:41:34.397Z,10.69
2017-09-29T00:42:35.012Z,10.71
2017-09-29T00:43:35.652Z,10.68
2017-09-29T00:44:36.265Z,10.68
2017-09-29T00:45:37.031Z,10.60
2017-09-29T00:46:37.644Z,10.57
2017-09-29T00:47:38.256Z,10.60
2017-09-29T00:48:38.867Z,10.59
2017-09-29T00:49:39.478Z,10.60
2017-09-29T00:50:40.238Z,10.49
2017-09-29T00:51:40.851Z,10.49
2017-09-29T00:52:41.470Z,10.61
2017-09-29T00:53:42.083Z,10.54
2017-09-29T00:54:42.697Z,10.64
2017-09-29T00:55:43.458Z,10.67
2017-09-29T00:56:44.071Z,10.68
2017-09-29T00:57:44.682Z,10.69
2017-09-29T00:58:45.326Z,10.68
2017-09-29T00:59:45.946Z,10.67
2017-09-29T01:00:46.704Z,10.71
2017-09-29T01:01:47.317Z,10.75
2017-09-29T01:02:47.929Z,10.64
2017-09-29T01:03:48.543Z,10.72
2017-09-29T01:04:49.151Z,10.71
2017-09-29T01:05:49.916Z,10.68
2017-09-29T01:06:50.530Z,10.67
2017-09-29T01:07:51.139Z,10.68
2017-09-29T01:08:51.753Z,10.72
2017-09-29T01:09:52.363Z,10.63
2017-09-29T01:10:53.183Z,10.61
2017-09-29T01:11:53.798Z,10.64
2017-09-29T01:12:54.444Z,10.61
2017-09-29T01:13:55.055Z,10.61
2017-09-29T01:14:55.666Z,10.63
2017-09-29T01:15:56.429Z,10.68
2017-09-29T01:16:57.039Z,10.68
2017-09-29T01:17:57.665Z,10.68
2017-09-29T01:18:58.274Z,10.72
2017-09-29T01:19:58.888Z,10.67
2017-09-29T01:20:59.651Z,10.72
2017-09-29T01:22:00.293Z,10.71
2017-09-29T01:23:00.905Z,10.68
2017-09-29T01:24:01.516Z,10.68
2017-09-29T01:25:02.137Z,10.67
2017-09-29T01:26:02.748Z,10.64
2017-09-29T01:27:03.506Z,10.67
2017-09-29T01:28:04.118Z,10.64
2017-09-29T01:29:04.729Z,10.61
2017-09-29T01:30:05.344Z,10.64
2017-09-29T01:31:05.957Z,10.69
2017-09-29T01:32:06.723Z,10.69
2017-09-29T01:33:07.331Z,10.71
2017-09-29T01:34:07.942Z,10.71
2017-09-29T01:35:08.552Z,10.75
2017-09-29T01:36:09.163Z,10.78
2017-09-29T01:37:09.934Z,10.71
2017-09-29T01:38:10.545Z,10.71
2017-09-29T01:39:11.155Z,10.76
2017-09-29T01:40:11.799Z,10.72
2017-09-29T01:41:12.410Z,10.64
2017-09-29T01:42:13.171Z,10.74
2017-09-29T01:43:13.782Z,10.69
2017-09-29T01:44:14.395Z,10.71
2017-09-29T01:45:15.010Z,10.74
2017-09-29T01:46:15.653Z,10.67
2017-09-29T01:47:16.418Z,10.64
2017-09-29T01:48:17.029Z,10.74
2017-09-29T01:49:17.641Z,10.72
2017-09-29T01:50:18.258Z,10.79
2017-09-29T01:51:18.875Z,10.84
2017-09-29T01:52:19.669Z,10.74
2017-09-29T01:53:20.279Z,10.74
2017-09-29T01:54:20.892Z,10.82
2017-09-29T01:55:21.503Z,10.82
2017-09-29T01:56:22.115Z,10.69
2017-09-29T01:57:22.883Z,10.75
2017-09-29T01:58:23.493Z,10.64
2017-09-29T01:59:24.136Z,10.69
2017-09-29T02:00:24.755Z,10.59
2017-09-29T02:01:25.369Z,10.59
2017-09-29T02:02:26.126Z,10.60
2017-09-29T02:03:26.738Z,10.69
2017-09-29T02:04:27.350Z,10.69
2017-09-29T02:05:27.960Z,10.71
2017-09-29T02:06:28.572Z,10.74
2017-09-29T02:07:29.335Z,10.67
2017-09-29T02:08:29.947Z,10.68
2017-09-29T02:09:30.565Z,10.71
2017-09-29T02:10:31.173Z,10.71
2017-09-29T02:11:31.784Z,10.71
2017-09-29T02:12:32.547Z,10.69
2017-09-29T02:13:33.160Z,10.72
2017-09-29T02:14:33.772Z,10.69
2017-09-29T02:15:34.382Z,10.76
2017-09-29T02:16:35.026Z,10.79
2017-09-29T02:17:35.792Z,10.82
2017-09-29T02:18:36.413Z,10.87
2017-09-29T02:19:37.014Z,10.93
2017-09-29T02:20:37.630Z,10.92
2017-09-29T02:21:38.238Z,10.87
2017-09-29T02:22:39.001Z,10.90
2017-09-29T02:23:39.614Z,10.94
2017-09-29T02:24:40.227Z,10.96
2017-09-29T02:25:40.845Z,10.97
2017-09-29T02:26:41.455Z,10.90
2017-09-29T02:27:42.272Z,10.93
2017-09-29T02:28:42.917Z,10.89
2017-09-29T02:29:43.565Z,10.94
2017-09-29T02:30:44.176Z,10.89
2017-09-29T02:31:44.794Z,10.89
2017-09-29T02:32:45.552Z,10.94
2017-09-29T02:33:46.171Z,10.89
2017-09-29T02:34:46.780Z,10.86
2017-09-29T02:35:47.391Z,10.94
2017-09-29T02:36:48.008Z,10.90
2017-09-29T02:37:48.768Z,10.89
2017-09-29T02:38:49.386Z,10.97
2017-09-29T02:39:49.994Z,10.92
2017-09-29T02:40:50.606Z,10.93
2017-09-29T02:41:51.249Z,10.93
2017-09-29T02:42:52.046Z,10.82
2017-09-29T02:43:52.655Z,10.89
2017-09-29T02:44:53.267Z,10.76
2017-09-29T02:45:53.880Z,10.79
2017-09-29T02:46:54.502Z,10.81
2017-09-29T02:47:55.296Z,10.86
2017-09-29T02:48:55.914Z,10.86
2017-09-29T02:49:56.525Z,10.78
2017-09-29T02:50:57.143Z,10.86
2017-09-29T02:51:57.754Z,10.81
2017-09-29T02:52:58.514Z,10.86
2017-09-29T02:53:59.164Z,10.81
2017-09-29T02:54:59.772Z,10.84
2017-09-29T02:56:00.391Z,10.82
2017-09-29T02:57:01.027Z,10.82
2017-09-29T02:58:01.786Z,10.71
2017-09-29T02:59:02.399Z,10.64
2017-09-29T03:00:03.010Z,10.76
2017-09-29T03:01:03.626Z,10.68
2017-09-29T03:02:04.235Z,10.63
2017-09-29T03:03:04.997Z,10.60
2017-09-29T03:04:05.609Z,10.67
2017-09-29T03:05:06.229Z,10.56
2017-09-29T03:06:06.836Z,10.57
2017-09-29T03:07:07.452Z,10.57
2017-09-29T03:08:08.212Z,10.49
2017-09-29T03:09:08.824Z,10.54
2017-09-29T03:10:09.434Z,10.63
2017-09-29T03:11:10.052Z,10.56
2017-09-29T03:12:10.661Z,10.60
2017-09-29T03:13:11.423Z,10.63
2017-09-29T03:14:12.037Z,10.54
2017-09-29T03:15:12.647Z,10.57
2017-09-29T03:16:13.286Z,10.57
2017-09-29T03:17:13.898Z,10.59
2017-09-29T03:18:14.660Z,10.56
2017-09-29T03:19:15.272Z,10.57
2017-09-29T03:20:15.884Z,10.60
2017-09-29T03:21:16.501Z,10.56
2017-09-29T03:22:17.113Z,10.57
2017-09-29T03:23:17.877Z,10.64
2017-09-29T03:24:18.488Z,10.63
2017-09-29T03:25:19.099Z,10.68
2017-09-29T03:26:19.710Z,10.75
2017-09-29T03:27:20.322Z,10.67
2017-09-29T03:28:21.083Z,10.68
2017-09-29T03:29:21.701Z,10.68
2017-09-29T03:30:22.311Z,10.69
2017-09-29T03:31:22.921Z,10.74
2017-09-29T03:32:23.537Z,10.74
2017-09-29T03:33:24.301Z,10.69
2017-09-29T03:34:24.910Z,10.71
2017-09-29T03:35:25.523Z,10.69
2017-09-29T03:36:26.137Z,10.72
2017-09-29T03:37:26.784Z,10.79
2017-09-29T03:38:27.541Z,10.79
2017-09-29T03:39:28.153Z,10.81
2017-09-29T03:40:28.770Z,10.72
2017-09-29T03:41:29.380Z,10.79
2017-09-29T03:42:29.989Z,10.89
2017-09-29T03:43:30.785Z,10.79
2017-09-29T03:44:31.402Z,10.93
2017-09-29T03:45:32.045Z,10.87
2017-09-29T03:46:32.662Z,10.90
2017-09-29T03:47:33.276Z,10.90
2017-09-29T03:48:34.036Z,10.93
2017-09-29T03:49:34.651Z,10.87
2017-09-29T03:50:35.266Z,10.89
2017-09-29T03:51:35.875Z,10.87
2017-09-29T03:52:36.487Z,10.89
2017-09-29T03:53:37.248Z,10.94
2017-09-29T03:54:37.862Z,10.92
2017-09-29T03:55:38.472Z,10.94
2017-09-29T03:56:39.089Z,10.94
2017-09-29T03:57:39.698Z,10.89
2017-09-29T03:58:40.461Z,10.92
2017-09-29T03:59:41.071Z,10.84
2017-09-29T04:00:41.683Z,10.92
2017-09-29T04:01:42.325Z,10.87
2017-09-29T04:02:42.936Z,10.96
2017-09-29T04:03:43.697Z,10.94
2017-09-29T04:04:44.309Z,10.96
2017-09-29T04:05:44.921Z,11.00
2017-09-29T04:06:45.540Z,10.92
2017-09-29T04:07:46.148Z,10.87
2017-09-29T04:08:46.912Z,10.92
2017-09-29T04:09:47.554Z,10.90
2017-09-29T04:10:48.165Z,10.93
2017-09-29T04:11:48.781Z,10.90
2017-09-29T04:12:49.393Z,10.94
2017-09-29T04:13:50.154Z,10.89
2017-09-29T04:14:50.767Z,10.86
2017-09-29T04:15:51.379Z,10.86
2017-09-29T04:16:51.993Z,10.82
2017-09-29T04:17:52.610Z,10.87
2017-09-29T04:18:53.369Z,10.86
2017-09-29T04:19:53.984Z,10.92
2017-09-29T04:20:54.596Z,10.90
2017-09-29T04:21:55.208Z,10.93
2017-09-29T04:22:55.824Z,11.00
2017-09-29T04:23:56.584Z,10.90
2017-09-29T04:24:57.202Z,10.93
2017-09-29T04:25:57.816Z,11.00
2017-09-29T04:26:58.425Z,10.93
2017-09-29T04:27:59.043Z,10.94
2017-09-29T04:28:59.807Z,11.05
2017-09-29T04:30:00.420Z,10.97
2017-09-29T04:31:01.030Z,10.97
2017-09-29T04:32:01.644Z,11.00
2017-09-29T04:33:02.253Z,11.02
2017-09-29T04:34:03.014Z,11.00
2017-09-29T04:35:03.658Z,11.05
2017-09-29T04:36:04.278Z,11.00
2017-09-29T04:37:04.891Z,11.02
2017-09-29T04:38:05.501Z,11.00
2017-09-29T04:39:06.268Z,11.07
2017-09-29T04:40:06.883Z,10.99
2017-09-29T04:41:07.520Z,10.89
2017-09-29T04:42:08.132Z,10.86
2017-09-29T04:43:08.743Z,10.89
2017-09-29T04:44:09.505Z,10.90
2017-09-29T04:45:10.118Z,10.79
2017-09-29T04:46:10.730Z,10.74
2017-09-29T04:47:11.351Z,10.84
2017-09-29T04:48:11.991Z,10.86
2017-09-29T04:49:12.751Z,10.75
2017-09-29T04:50:13.363Z,10.82
2017-09-29T04:51:13.980Z,10.84
2017-09-29T04:52:14.589Z,10.81
2017-09-29T04:53:15.203Z,10.81
2017-09-29T04:54:15.969Z,10.74
2017-09-29T04:55:16.580Z,10.84
2017-09-29T04:56:17.193Z,10.79
2017-09-29T04:57:17.806Z,10.86
2017-09-29T04:58:18.422Z,10.86
2017-09-29T04:59:19.187Z,10.84
2017-09-29T05:00:19.797Z,10.81
2017-09-29T05:01:20.407Z,10.81
2017-09-29T05:02:21.025Z,10.81
2017-09-29T05:03:21.635Z,10.79
2017-09-29T05:04:22.397Z,10.89
2017-09-29T05:05:23.007Z,10.84
2017-09-29T05:06:23.620Z,10.93
2017-09-29T05:07:24.232Z,10.81
2017-09-29T05:08:24.843Z,10.89
2017-09-29T05:09:25.605Z,10.93
2017-09-29T05:10:26.223Z,10.86
2017-09-29T05:11:26.833Z,10.94
2017-09-29T05:12:27.443Z,10.89
2017-09-29T05:13:28.057Z,10.94
2017-09-29T05:14:28.822Z,10.87
2017-09-29T05:15:29.431Z,10.81
2017-09-29T05:16:30.044Z,10.79
2017-09-29T05:17:30.656Z,10.78
2017-09-29T05:18:31.267Z,10.82
2017-09-29T05:19:32.027Z,10.79
2017-09-29T05:20:32.646Z,10.82
2017-09-29T05:21:33.282Z,10.76
2017-09-29T05:22:33.934Z,10.78
2017-09-29T05:23:34.576Z,10.90
2017-09-29T05:24:35.335Z,10.94
2017-09-29T05:25:35.945Z,10.87
2017-09-29T05:26:36.556Z,10.89
2017-09-29T05:27:37.166Z,10.84
2017-09-29T05:28:37.778Z,10.90
2017-09-29T05:29:38.539Z,10.87
2017-09-29T05:30:39.157Z,10.92
2017-09-29T05:31:39.766Z,10.97
2017-09-29T05:32:40.377Z,11.02
2017-09-29T05:33:40.988Z,10.97
2017-09-29T05:34:41.750Z,10.96
2017-09-29T05:35:42.361Z,10.97
2017-09-29T05:36:42.973Z,11.07
2017-09-29T05:37:43.585Z,10.99
2017-09-29T05:38:44.195Z,10.96
2017-09-29T05:39:44.987Z,10.94
2017-09-29T05:40:45.629Z,11.02
2017-09-29T05:41:46.240Z,10.90
2017-09-29T05:42:46.854Z,10.93
2017-09-29T05:43:47.470Z,10.90
2017-09-29T05:44:48.230Z,10.87
2017-09-29T05:45:48.846Z,11.00
2017-09-29T05:46:49.457Z,10.94
2017-09-29T05:47:50.070Z,11.05
2017-09-29T05:48:50.681Z,11.00
2017-09-29T05:49:51.443Z,10.94
2017-09-29T05:50:52.059Z,11.02
2017-09-29T05:51:52.672Z,11.02
2017-09-29T05:52:53.290Z,11.05
2017-09-29T05:53:53.932Z,11.02
2017-09-29T05:54:54.700Z,11.07
2017-09-29T05:55:55.312Z,11.08
2017-09-29T05:56:55.930Z,11.07
2017-09-29T05:57:56.545Z,11.07
2017-09-29T05:58:57.155Z,11.07
2017-09-29T05:59:57.917Z,11.10
2017-09-29T06:00:58.532Z,11.12
2017-09-29T06:01:59.145Z,11.10
2017-09-29T06:02:59.790Z,11.17
2017-09-29T06:04:00.403Z,11.12
2017-09-29T06:05:01.316Z,11.19
2017-09-29T06:06:01.929Z,11.15
2017-09-29T06:07:02.570Z,11.17
2017-09-29T06:08:03.184Z,11.23
2017-09-29T06:09:03.796Z,11.23
2017-09-29T06:10:04.572Z,11.22
2017-09-29T06:11:05.172Z,11.23
2017-09-29T06:12:05.818Z,11.32
2017-09-29T06:13:06.466Z,11.25
2017-09-29T06:14:07.075Z,11.29
2017-09-29T06:15:07.844Z,11.30
2017-09-29T06:16:08.455Z,11.32
2017-09-29T06:17:09.067Z,11.33
2017-09-29T06:18:09.679Z,11.33
2017-09-29T06:19:10.322Z,11.35
2017-09-29T06:20:11.085Z,11.27
2017-09-29T06:21:11.701Z,11.36
2017-09-29T06:22:12.319Z,11.35
2017-09-29T06:23:12.928Z,11.30
2017-09-29T06:24:13.547Z,11.36
2017-09-29T06:25:14.307Z,11.40
2017-09-29T06:26:14.925Z,11.41
2017-09-29T06:27:15.536Z,11.52
2017-09-29T06:28:16.148Z,11.44
2017-09-29T06:29:16.761Z,11.44
2017-09-29T06:30:17.530Z,11.43
2017-09-29T06:31:18.148Z,11.40
2017-09-29T06:32:18.756Z,11.41
2017-09-29T06:33:19.374Z,11.43
2017-09-29T06:34:19.987Z,11.47
2017-09-29T06:35:20.757Z,11.47
2017-09-29T06:36:21.399Z,11.45
2017-09-29T06:37:22.048Z,11.51
2017-09-29T06:38:22.661Z,11.52
2017-09-29T06:39:23.273Z,11.51
2017-09-29T06:40:24.041Z,11.51
2017-09-29T06:41:24.657Z,11.51
2017-09-29T06:42:25.266Z,11.48
2017-09-29T06:43:25.881Z,11.44
2017-09-29T06:44:26.496Z,11.48
2017-09-29T06:45:27.260Z,11.60
2017-09-29T06:46:27.874Z,11.57
2017-09-29T06:47:28.492Z,11.63
2017-09-29T06:48:29.106Z,11.47
2017-09-29T06:49:29.723Z,11.51
2017-09-29T06:50:30.483Z,11.45
2017-09-29T06:51:31.097Z,11.44
2017-09-29T06:52:31.741Z,11.43
2017-09-29T06:53:32.357Z,11.47
2017-09-29T06:54:32.975Z,11.48
2017-09-29T06:55:33.735Z,11.54
2017-09-29T06:56:34.349Z,11.52
2017-09-29T06:57:34.967Z,11.51
2017-09-29T06:58:35.577Z,11.59
2017-09-29T06:59:36.192Z,11.63
2017-09-29T07:00:36.953Z,11.68
2017-09-29T07:01:37.568Z,11.70
2017-09-29T07:02:38.181Z,11.75
2017-09-29T07:03:38.832Z,11.77
2017-09-29T07:04:39.450Z,11.75
2017-09-29T07:05:40.244Z,11.80
2017-09-29T07:06:40.867Z,11.94
2017-09-29T07:07:41.483Z,11.87
2017-09-29T07:08:42.096Z,11.91
2017-09-29T07:09:42.709Z,11.95
2017-09-29T07:10:43.472Z,12.00
2017-09-29T07:11:44.118Z,12.06
2017-09-29T07:12:44.728Z,12.04
2017-09-29T07:13:45.341Z,12.04
2017-09-29T07:14:45.959Z,12.12
2017-09-29T07:15:46.717Z,12.02
2017-09-29T07:16:47.331Z,12.02
2017-09-29T07:17:47.944Z,12.09
2017-09-29T07:18:48.557Z,11.99
2017-09-29T07:19:49.169Z,12.07
2017-09-29T07:20:49.939Z,12.02
2017-09-29T07:21:50.548Z,11.94
2017-09-29T07:22:51.162Z,11.95
2017-09-29T07:23:51.804Z,11.97
2017-09-29T07:24:52.419Z,12.00
2017-09-29T07:25:53.189Z,12.02
2017-09-29T07:26:53.806Z,11.99
2017-09-29T07:27:54.418Z,12.02
2017-09-29T07:28:55.033Z,12.03
2017-09-29T07:29:55.649Z,12.00
2017-09-29T07:30:56.415Z,12.04
2017-09-29T07:31:57.034Z,12.07
2017-09-29T07:32:57.652Z,12.03
2017-09-29T07:33:58.266Z,12.12
2017-09-29T07:34:58.880Z,12.22
2017-09-29T07:35:59.646Z,12.20
2017-09-29T07:37:00.267Z,12.18
2017-09-29T07:38:00.879Z,12.27
2017-09-29T07:39:01.493Z,12.27
2017-09-29T07:40:02.107Z,12.27
2017-09-29T07:41:02.902Z,12.32
2017-09-29T07:42:03.517Z,12.43
2017-09-29T07:43:04.139Z,12.46
2017-09-29T07:44:04.753Z,12.55
2017-09-29T07:45:05.368Z,12.64
2017-09-29T07:46:06.165Z,12.64
2017-09-29T07:47:06.785Z,12.75
2017-09-29T07:48:07.403Z,12.79
2017-09-29T07:49:08.011Z,12.93
2017-09-29T07:50:08.663Z,12.90
2017-09-29T07:51:09.425Z,12.93
2017-09-29T07:52:10.072Z,12.97
2017-09-29T07:53:10.687Z,13.01
2017-09-29T07:54:11.302Z,13.12
2017-09-29T07:55:11.918Z,13.19
2017-09-29T07:56:12.684Z,13.20
2017-09-29T07:57:13.327Z,13.08
2017-09-29T07:58:13.944Z,13.23
2017-09-29T07:59:14.559Z,13.13
2017-09-29T08:00:15.175Z,13.20
2017-09-29T08:01:15.947Z,13.23
2017-09-29T08:02:16.560Z,13.25
2017-09-29T08:03:17.176Z,13.31
2017-09-29T08:04:17.794Z,13.46
2017-09-29T08:05:18.410Z,13.42
2017-09-29T08:06:19.175Z,13.37
2017-09-29T08:07:19.791Z,13.31
2017-09-29T08:08:20.417Z,13.39
2017-09-29T08:09:21.028Z,13.33
2017-09-29T08:10:21.648Z,13.25
2017-09-29T08:11:22.413Z,13.23
2017-09-29T08:12:23.034Z,13.19
2017-09-29T08:13:23.647Z,13.16
2017-09-29T08:14:24.293Z,13.12
2017-09-29T08:15:24.911Z,13.09
2017-09-29T08:16:25.677Z,13.13
2017-09-29T08:17:26.298Z,13.19
2017-09-29T08:18:26.917Z,13.11
2017-09-29T08:19:27.528Z,13.11
2017-09-29T08:20:28.145Z,13.09
2017-09-29T08:21:28.917Z,13.00
2017-09-29T08:22:29.536Z,13.18
2017-09-29T08:23:30.149Z,13.04
2017-09-29T08:24:30.764Z,13.15
2017-09-29T08:25:31.383Z,13.11
2017-09-29T08:26:32.154Z,13.19
2017-09-29T08:27:32.800Z,13.30
2017-09-29T08:28:33.416Z,13.16
2017-09-29T08:29:34.034Z,13.20
2017-09-29T08:30:34.654Z,13.25
2017-09-29T08:31:35.423Z,13.27
2017-09-29T08:32:36.037Z,13.12
2017-09-29T08:33:36.652Z,13.16
2017-09-29T08:34:37.267Z,13.23
2017-09-29T08:35:37.889Z,13.15
2017-09-29T08:36:38.651Z,13.15
2017-09-29T08:37:39.267Z,13.27
2017-09-29T08:38:39.883Z,13.37
2017-09-29T08:39:40.504Z,13.47
2017-09-29T08:40:41.123Z,13.49
2017-09-29T08:41:41.890Z,13.63
2017-09-29T08:42:42.507Z,13.70
2017-09-29T08:43:43.124Z,13.68
2017-09-29T08:44:43.745Z,13.68
2017-09-29T08:45:44.363Z,13.75
2017-09-29T08:46:45.158Z,13.72
2017-09-29T08:47:45.775Z,13.81
2017-09-29T08:48:46.390Z,13.87
2017-09-29T08:49:47.011Z,13.95
2017-09-29T08:50:47.626Z,13.96
2017-09-29T08:51:48.392Z,13.96
2017-09-29T08:52:49.009Z,14.04
2017-09-29T08:53:49.626Z,14.11
2017-09-29T08:54:50.243Z,14.15
2017-09-29T08:55:50.860Z,14.36
2017-09-29T08:56:51.627Z,14.37
2017-09-29T08:57:52.243Z,14.43
2017-09-29T08:58:52.860Z,14.68
2017-09-29T08:59:53.481Z,14.66
2017-09-29T09:00:54.094Z,14.77
2017-09-29T09:01:54.862Z,14.77
2017-09-29T09:02:55.479Z,14.66
2017-09-29T09:03:56.094Z,14.62
2017-09-29T09:04:56.712Z,14.58
2017-09-29T09:05:57.329Z,14.60
2017-09-29T09:06:58.095Z,14.59
2017-09-29T09:07:58.714Z,14.63
2017-09-29T09:08:59.334Z,14.68
2017-09-29T09:09:59.947Z,14.82
2017-09-29T09:11:00.564Z,14.78
2017-09-29T09:12:01.331Z,14.82
2017-09-29T09:13:01.947Z,14.81
2017-09-29T09:14:02.562Z,14.91
2017-09-29T09:15:03.213Z,15.00
2017-09-29T09:16:03.827Z,14.97
2017-09-29T09:17:04.594Z,15.00
2017-09-29T09:18:05.210Z,15.02
2017-09-29T09:19:05.826Z,15.04
2017-09-29T09:20:06.448Z,15.09
2017-09-29T09:21:07.063Z,15.15
2017-09-29T09:22:07.831Z,15.22
2017-09-29T09:23:08.448Z,15.15
2017-09-29T09:24:09.067Z,15.11
2017-09-29T09:25:09.681Z,15.10
2017-09-29T09:26:10.335Z,15.04
2017-09-29T09:27:11.101Z,15.10
2017-09-29T09:28:11.724Z,15.03
2017-09-29T09:29:12.337Z,15.00
2017-09-29T09:30:12.955Z,15.03
2017-09-29T09:31:13.577Z,15.09
2017-09-29T09:32:14.345Z,15.33
2017-09-29T09:33:14.963Z,15.29
2017-09-29T09:34:15.579Z,15.52
2017-09-29T09:35:16.201Z,15.72
2017-09-29T09:36:16.816Z,15.79
2017-09-29T09:37:17.583Z,15.83
2017-09-29T09:38:18.201Z,15.94
2017-09-29T09:39:18.819Z,16.05
2017-09-29T09:40:19.436Z,16.04
2017-09-29T09:41:20.092Z,16.24
2017-09-29T09:42:20.859Z,16.28
2017-09-29T09:43:21.475Z,16.46
2017-09-29T09:44:22.094Z,16.46
2017-09-29T09:45:22.717Z,16.54
2017-09-29T09:46:23.339Z,16.53
2017-09-29T09:47:24.105Z,16.68
2017-09-29T09:48:24.723Z,16.78
2017-09-29T09:49:25.348Z,16.90
2017-09-29T09:50:25.963Z,16.83
2017-09-29T09:51:26.586Z,16.78
2017-09-29T09:52:27.351Z,16.68
2017-09-29T09:53:27.968Z,16.51
2017-09-29T09:54:28.588Z,16.61
2017-09-29T09:55:29.204Z,16.71
2017-09-29T09:56:29.827Z,16.84
2017-09-29T09:57:30.595Z,16.86
2017-09-29T09:58:31.212Z,16.96
2017-09-29T09:59:31.831Z,17.12
2017-09-29T10:00:32.450Z,17.16
2017-09-29T10:01:33.069Z,17.22
2017-09-29T10:02:33.837Z,17.19
2017-09-29T10:03:34.461Z,17.26
2017-09-29T10:04:35.076Z,17.33
2017-09-29T10:05:35.695Z,17.48
2017-09-29T10:06:36.313Z,17.49
2017-09-29T10:07:37.081Z,17.60
2017-09-29T10:08:37.700Z,17.92
2017-09-29T10:09:38.319Z,18.03
2017-09-29T10:10:38.937Z,17.90
2017-09-29T10:11:39.556Z,17.83
2017-09-29T10:12:40.330Z,17.57
2017-09-29T10:13:40.954Z,17.46
2017-09-29T10:14:41.604Z,17.46
2017-09-29T10:15:42.224Z,17.44
2017-09-29T10:16:42.848Z,17.42
2017-09-29T10:17:43.615Z,17.39
2017-09-29T10:18:44.238Z,17.41
2017-09-29T10:19:44.856Z,17.38
2017-09-29T10:20:45.474Z,17.42
2017-09-29T10:21:46.092Z,17.52
2017-09-29T10:22:47.018Z,17.54
2017-09-29T10:23:47.635Z,17.83
2017-09-29T10:24:48.254Z,17.85
2017-09-29T10:25:48.872Z,17.67
2017-09-29T10:26:49.496Z,17.63
2017-09-29T10:27:50.414Z,17.59
2017-09-29T10:28:51.038Z,17.49
2017-09-29T10:29:51.656Z,17.39
2017-09-29T10:30:52.278Z,17.27
2017-09-29T10:31:52.895Z,17.36
2017-09-29T10:32:53.672Z,17.41
2017-09-29T10:33:54.289Z,17.48
2017-09-29T10:34:54.916Z,17.46
2017-09-29T10:35:55.538Z,17.64
2017-09-29T10:36:56.156Z,17.67
2017-09-29T10:37:56.926Z,17.79
2017-09-29T10:38:57.548Z,17.80
2017-09-29T10:39:58.197Z,17.86
2017-09-29T10:40:58.815Z,17.72
2017-09-29T10:41:59.441Z,17.87
2017-09-29T10:43:00.360Z,17.95
2017-09-29T10:44:00.982Z,18.04
2017-09-29T10:45:01.607Z,18.08
2017-09-29T10:46:02.229Z,18.13
2017-09-29T10:47:02.852Z,18.15
2017-09-29T10:48:03.617Z,18.18
2017-09-29T10:49:04.238Z,18.37
2017-09-29T10:50:04.861Z,18.26
2017-09-29T10:51:05.486Z,18.23
2017-09-29T10:52:06.108Z,18.18
2017-09-29T10:53:07.024Z,18.25
2017-09-29T10:54:07.647Z,18.20
2017-09-29T10:55:08.269Z,18.23
2017-09-29T10:56:08.893Z,18.23
2017-09-29T10:57:09.515Z,18.25
2017-09-29T10:58:10.437Z,18.22
2017-09-29T10:59:11.055Z,18.08
2017-09-29T11:00:11.673Z,18.01
2017-09-29T11:01:12.298Z,17.80
2017-09-29T11:02:12.916Z,17.86
2017-09-29T11:03:13.714Z,17.89
2017-09-29T11:04:14.337Z,18.01
2017-09-29T11:05:14.957Z,18.16
2017-09-29T11:06:15.578Z,18.23
2017-09-29T11:07:16.197Z,18.43
2017-09-29T11:08:17.070Z,18.56
2017-09-29T11:09:17.701Z,18.78
2017-09-29T11:10:18.315Z,19.04
2017-09-29T11:11:18.942Z,19.19
2017-09-29T11:12:19.558Z,19.33
2017-09-29T11:13:20.433Z,19.18
2017-09-29T11:14:21.085Z,19.16
2017-09-29T11:15:21.704Z,19.39
2017-09-29T11:16:22.323Z,19.36
2017-09-29T11:17:22.949Z,19.40
2017-09-29T11:18:23.873Z,19.51
2017-09-29T11:19:24.491Z,19.33
2017-09-29T11:20:25.147Z,19.34
2017-09-29T11:21:25.763Z,19.33
2017-09-29T11:22:26.387Z,19.30
2017-09-29T11:23:27.166Z,19.36
2017-09-29T11:24:27.811Z,19.56
2017-09-29T11:25:28.436Z,19.66
2017-09-29T11:26:29.056Z,19.77
2017-09-29T11:27:29.679Z,19.81
2017-09-29T11:28:30.460Z,19.89
2017-09-29T11:29:31.082Z,20.10
2017-09-29T11:30:31.708Z,20.07
2017-09-29T11:31:32.325Z,20.18
2017-09-29T11:32:32.950Z,20.25
2017-09-29T11:33:33.877Z,20.22
2017-09-29T11:34:34.495Z,20.31
2017-09-29T11:35:35.115Z,20.25
2017-09-29T11:36:35.738Z,20.18
2017-09-29T11:37:36.361Z,20.03
2017-09-29T11:38:37.282Z,19.95
2017-09-29T11:39:37.907Z,19.88
2017-09-29T11:40:38.534Z,20.04
2017-09-29T11:41:39.155Z,20.14
2017-09-29T11:42:39.784Z,20.32
2017-09-29T11:43:40.585Z,20.47
2017-09-29T11:44:41.210Z,20.63
2017-09-29T11:45:41.833Z,20.87
2017-09-29T11:46:42.491Z,20.96
2017-09-29T11:47:43.117Z,20.75
2017-09-29T11:48:44.038Z,20.29
2017-09-29T11:49:44.697Z,20.14
2017-09-29T11:50:45.322Z,20.06
2017-09-29T11:51:45.948Z,20.18
2017-09-29T11:52:46.566Z,20.32
2017-09-29T11:53:47.337Z,20.44
2017-09-29T11:54:47.958Z,20.41
2017-09-29T11:55:48.581Z,20.55
2017-09-29T11:56:49.205Z,20.70
2017-09-29T11:57:49.825Z,20.87
2017-09-29T11:58:50.599Z,20.92
2017-09-29T11:59:51.223Z,21.02
2017-09-29T12:00:51.878Z,21.05
2017-09-29T12:01:52.501Z,21.05
2017-09-29T12:02:53.129Z,20.82
2017-09-29T12:03:53.934Z,20.77
2017-09-29T12:04:54.556Z,20.77
2017-09-29T12:05:55.181Z,20.62
2017-09-29T12:06:55.840Z,20.60
2017-09-29T12:07:56.464Z,20.67
2017-09-29T12:08:57.239Z,20.75
2017-09-29T12:09:57.880Z,20.75
2017-09-29T12:10:58.480Z,20.58
2017-09-29T12:11:59.102Z,20.59
2017-09-29T12:12:59.722Z,20.75
2017-09-29T12:14:00.495Z,20.80
2017-09-29T12:15:01.118Z,20.88
2017-09-29T12:16:01.738Z,20.92
2017-09-29T12:17:02.363Z,20.75
2017-09-29T12:18:03.017Z,20.60
2017-09-29T12:19:03.789Z,20.43
2017-09-29T12:20:04.412Z,20.44
2017-09-29T12:21:05.037Z,20.32
2017-09-29T12:22:05.660Z,20.22
2017-09-29T12:23:06.283Z,20.18
2017-09-29T12:24:07.056Z,20.06
2017-09-29T12:25:07.676Z,19.96
2017-09-29T12:26:08.299Z,19.89
2017-09-29T12:27:08.920Z,19.84
2017-09-29T12:28:09.542Z,19.79
2017-09-29T12:29:10.316Z,19.69
2017-09-29T12:30:10.943Z,19.67
2017-09-29T12:31:11.595Z,19.74
2017-09-29T12:32:12.217Z,19.74
2017-09-29T12:33:12.842Z,19.86
2017-09-29T12:34:13.612Z,19.66
2017-09-29T12:35:14.237Z,19.64
2017-09-29T12:36:14.858Z,19.69
2017-09-29T12:37:15.481Z,19.66
2017-09-29T12:38:16.107Z,19.56
2017-09-29T12:39:16.874Z,19.44
2017-09-29T12:40:17.497Z,19.37
2017-09-29T12:41:18.122Z,19.41
2017-09-29T12:42:18.740Z,19.48
2017-09-29T12:43:19.367Z,19.54
2017-09-29T12:44:20.141Z,19.56
2017-09-29T12:45:20.772Z,19.63
2017-09-29T12:46:21.383Z,19.41
2017-09-29T12:47:22.033Z,19.34
2017-09-29T12:48:22.652Z,19.33
2017-09-29T12:49:23.424Z,19.22
2017-09-29T12:50:24.046Z,19.22
2017-09-29T12:51:24.668Z,19.31
2017-09-29T12:52:25.296Z,19.39
2017-09-29T12:53:25.912Z,19.22
2017-09-29T12:54:26.683Z,19.30
2017-09-29T12:55:27.305Z,19.18
2017-09-29T12:56:27.923Z,19.07
2017-09-29T12:57:28.545Z,19.08
2017-09-29T12:58:29.166Z,19.08
2017-09-29T12:59:29.941Z,19.08
2017-09-29T13:00:30.562Z,19.04